createdAt,value
2023-01-12T00:01:50.537Z,3.20
2023-01-12T00:04:17.709Z,3.85
2023-01-12T00:06:44.788Z,3.72
2023-01-12T00:09:11.456Z,4.20
2023-01-12T00:11:39.738Z,3.97
2023-01-12T00:14:08.069Z,3.40
2023-01-12T00:16:35.685Z,3.85
2023-01-12T00:19:23.025Z,3.35
2023-01-12T00:21:59.539Z,4.47
2023-01-12T00:24:37.572Z,3.67
2023-01-12T00:27:10.543Z,3.88
2023-01-12T00:29:37.746Z,3.83
2023-01-12T00:32:05.670Z,3.60
2023-01-12T00:34:32.895Z,3.58
2023-01-12T00:37:04.003Z,4.05
2023-01-12T00:39:30.687Z,3.20
2023-01-12T00:42:15.857Z,5.70
2023-01-12T00:45:01.328Z,3.63
2023-01-12T00:47:28.008Z,3.67
2023-01-12T00:49:54.668Z,3.63
2023-01-12T00:52:30.340Z,3.40
2023-01-12T00:54:58.975Z,4.57
2023-01-12T00:57:25.763Z,3.30
2023-01-12T00:59:55.502Z,4.30
2023-01-12T01:02:23.113Z,3.97
2023-01-12T01:04:50.613Z,3.53
2023-01-12T01:07:18.353Z,3.88
2023-01-12T01:09:45.114Z,3.80
2023-01-12T01:12:11.993Z,5.22
2023-01-12T01:14:38.884Z,4.30
2023-01-12T01:17:06.057Z,3.65
2023-01-12T01:19:32.748Z,4.05
2023-01-12T01:21:59.480Z,4.50
2023-01-12T01:24:26.241Z,3.83
2023-01-12T01:26:52.890Z,3.42
2023-01-12T01:29:19.823Z,3.28
2023-01-12T01:31:47.735Z,4.07
2023-01-12T01:34:14.925Z,4.38
2023-01-12T01:36:41.948Z,3.20
2023-01-12T01:39:08.726Z,3.63
2023-01-12T01:41:35.629Z,3.47
2023-01-12T01:44:26.515Z,3.00
2023-01-12T01:46:57.842Z,3.47
2023-01-12T01:49:44.994Z,3.38
2023-01-12T01:52:25.687Z,3.40
2023-01-12T01:54:58.404Z,3.07
2023-01-12T01:57:29.967Z,3.78
2023-01-12T01:59:58.421Z,3.67
2023-01-12T02:02:26.328Z,4.63
2023-01-12T02:04:55.367Z,3.20
2023-01-12T02:07:22.088Z,2.85
2023-01-12T02:09:48.888Z,3.78
2023-01-12T02:12:34.026Z,2.78
2023-01-12T02:15:19.555Z,3.63
2023-01-12T02:18:10.761Z,3.28
2023-01-12T02:20:52.682Z,4.20
2023-01-12T02:23:22.112Z,3.15
2023-01-12T02:26:06.776Z,3.90
2023-01-12T02:28:39.324Z,3.35
2023-01-12T02:31:23.061Z,3.53
2023-01-12T02:34:22.425Z,3.97
2023-01-12T02:37:14.783Z,3.83
2023-01-12T02:39:59.641Z,3.28
2023-01-12T02:42:44.008Z,3.13
2023-01-12T02:45:31.490Z,3.40
2023-01-12T02:48:03.903Z,3.10
2023-01-12T02:51:06.066Z,2.90
2023-01-12T02:53:43.275Z,2.88
2023-01-12T02:56:13.650Z,2.47
2023-01-12T02:58:46.335Z,2.40
2023-01-12T03:01:15.478Z,2.25
2023-01-12T03:03:42.812Z,2.45
2023-01-12T03:06:10.096Z,1.77
2023-01-12T03:08:40.030Z,2.47
2023-01-12T03:11:12.364Z,2.63
2023-01-12T03:13:46.723Z,2.53
2023-01-12T03:16:18.010Z,1.80
2023-01-12T03:18:54.532Z,2.20
2023-01-12T03:21:50.186Z,1.83
2023-01-12T03:24:21.634Z,1.50
2023-01-12T03:29:22.894Z,1.27
2023-01-12T03:31:49.619Z,1.17
2023-01-12T03:34:16.345Z,1.10
2023-01-12T03:37:02.526Z,0.80
2023-01-12T03:39:55.413Z,1.23
2023-01-12T03:42:29.885Z,0.90
2023-01-12T03:45:22.439Z,0.95
2023-01-12T03:47:55.442Z,0.85
2023-01-12T03:50:27.355Z,1.10
2023-01-12T03:52:56.599Z,1.33
2023-01-12T03:55:25.001Z,1.00
2023-01-12T03:57:53.495Z,0.98
2023-01-12T04:00:22.598Z,0.47
2023-01-12T04:02:49.256Z,1.10
2023-01-12T04:05:16.788Z,0.47
2023-01-12T04:07:43.499Z,0.60
2023-01-12T04:10:10.589Z,0.65
2023-01-12T04:12:37.242Z,0.65
2023-01-12T04:15:04.366Z,0.80
2023-01-12T04:17:31.089Z,0.50
2023-01-12T04:19:57.719Z,0.60
2023-01-12T04:22:43.306Z,0.70
2023-01-12T04:25:15.815Z,0.75
2023-01-12T04:27:47.824Z,0.73
2023-01-12T04:30:16.975Z,1.08
2023-01-12T04:32:44.590Z,0.70
2023-01-12T04:35:12.286Z,0.63
2023-01-12T04:37:40.050Z,0.90
2023-01-12T04:40:08.344Z,0.88
2023-01-12T04:42:55.280Z,0.80
2023-01-12T04:45:22.209Z,0.80
2023-01-12T04:47:48.946Z,0.63
2023-01-12T04:50:15.914Z,0.82
2023-01-12T04:52:42.716Z,0.80
2023-01-12T04:55:09.561Z,0.68
2023-01-12T04:57:36.237Z,0.80
2023-01-12T05:00:05.111Z,0.77
2023-01-12T05:02:31.883Z,0.60
2023-01-12T05:04:58.542Z,0.50
2023-01-12T05:07:25.183Z,0.80
2023-01-12T05:10:27.185Z,0.80
2023-01-12T05:12:53.845Z,0.95
2023-01-12T05:15:20.498Z,0.88
2023-01-12T05:17:47.170Z,1.30
2023-01-12T05:20:13.971Z,1.15
2023-01-12T05:22:40.653Z,1.30
2023-01-12T05:25:07.868Z,1.33
2023-01-12T05:27:34.519Z,1.65
2023-01-12T05:30:01.403Z,1.25
2023-01-12T05:32:28.122Z,1.50
2023-01-12T05:34:54.755Z,1.13
2023-01-12T05:37:21.494Z,1.05
2023-01-12T05:39:48.117Z,1.25
2023-01-12T05:42:33.561Z,1.20
2023-01-12T05:45:00.201Z,1.98
2023-01-12T05:47:26.843Z,1.00
2023-01-12T05:49:53.548Z,1.40
2023-01-12T05:52:20.224Z,1.63
2023-01-12T05:54:46.908Z,1.45
2023-01-12T05:57:13.591Z,1.10
2023-01-12T05:59:40.220Z,1.40
2023-01-12T06:02:06.916Z,1.10
2023-01-12T06:04:33.666Z,0.85
2023-01-12T06:07:00.389Z,1.20
2023-01-12T06:09:27.788Z,1.73
2023-01-12T06:12:12.825Z,1.30
2023-01-12T06:14:39.478Z,1.50
2023-01-12T06:17:06.169Z,2.17
2023-01-12T06:19:32.898Z,1.13
2023-01-12T06:21:59.649Z,0.90
2023-01-12T06:24:28.264Z,1.10
2023-01-12T06:26:55.313Z,1.15
2023-01-12T06:29:21.972Z,1.70
2023-01-12T06:31:48.663Z,1.10
2023-01-12T06:34:15.398Z,1.05
2023-01-12T06:36:42.370Z,1.30
2023-01-12T06:39:09.222Z,1.63
2023-01-12T06:41:54.620Z,1.15
2023-01-12T06:44:21.271Z,1.35
2023-01-12T06:46:48.377Z,1.33
2023-01-12T06:49:16.760Z,1.67
2023-01-12T06:51:43.919Z,1.50
2023-01-12T06:54:10.603Z,1.50
2023-01-12T06:56:37.250Z,1.95
2023-01-12T06:59:03.901Z,1.42
2023-01-12T07:01:30.652Z,1.40
2023-01-12T07:03:57.545Z,1.13
2023-01-12T07:06:24.214Z,1.30
2023-01-12T07:08:50.869Z,1.17
2023-01-12T07:11:17.519Z,1.30
2023-01-12T07:13:44.214Z,1.60
2023-01-12T07:16:11.190Z,1.40
2023-01-12T07:18:37.919Z,0.95
2023-01-12T07:21:06.404Z,0.90
2023-01-12T07:23:33.171Z,1.00
2023-01-12T07:26:00.038Z,1.10
2023-01-12T07:28:27.099Z,1.35
2023-01-12T07:31:00.440Z,1.10
2023-01-12T07:33:27.127Z,1.30
2023-01-12T07:35:56.946Z,1.67
2023-01-12T07:38:23.762Z,1.40
2023-01-12T07:40:50.433Z,1.30
2023-01-12T07:43:19.140Z,1.40
2023-01-12T07:45:46.620Z,1.45
2023-01-12T07:48:13.356Z,1.23
2023-01-12T07:50:39.991Z,1.60
2023-01-12T07:53:06.663Z,1.52
2023-01-12T07:55:33.383Z,2.15
2023-01-12T07:58:03.247Z,1.70
2023-01-12T08:00:31.138Z,2.03
2023-01-12T08:03:08.315Z,1.60
2023-01-12T08:05:36.102Z,1.77
2023-01-12T08:08:03.769Z,1.30
2023-01-12T08:10:30.982Z,1.50
2023-01-12T08:12:57.981Z,2.50
2023-01-12T08:15:26.025Z,1.67
2023-01-12T08:18:01.955Z,1.60
2023-01-12T08:20:33.289Z,2.10
2023-01-12T08:23:08.115Z,2.30
2023-01-12T08:25:44.469Z,2.10
2023-01-12T08:28:19.051Z,2.05
2023-01-12T08:30:48.490Z,2.25
2023-01-12T08:33:15.926Z,2.63
2023-01-12T08:35:43.787Z,2.45
2023-01-12T08:38:10.689Z,2.65
2023-01-12T08:40:55.954Z,3.17
2023-01-12T08:43:41.274Z,2.83
2023-01-12T08:46:08.181Z,3.65
2023-01-12T08:48:36.925Z,3.35
2023-01-12T08:51:08.426Z,3.03
2023-01-12T08:56:02.302Z,2.45
2023-01-12T08:58:28.966Z,2.53
2023-01-12T09:00:55.858Z,2.70
2023-01-12T09:03:22.644Z,2.22
2023-01-12T09:05:49.379Z,2.20
2023-01-12T09:08:16.046Z,2.78
2023-01-12T09:10:42.717Z,2.83
2023-01-12T09:13:11.833Z,2.63
2023-01-12T09:15:38.615Z,2.60
2023-01-12T09:18:05.322Z,2.42
2023-01-12T09:20:33.525Z,2.88
2023-01-12T09:23:03.857Z,2.20
2023-01-12T09:25:30.532Z,2.38
2023-01-12T09:27:57.198Z,1.98
2023-01-12T09:30:23.853Z,1.80
2023-01-12T09:32:50.518Z,1.67
2023-01-12T09:35:19.852Z,2.20
2023-01-12T09:37:46.508Z,2.22
2023-01-12T09:40:15.141Z,2.60
2023-01-12T09:43:07.363Z,2.17
2023-01-12T09:45:53.064Z,1.60
2023-01-12T09:48:23.196Z,1.98
2023-01-12T09:51:09.348Z,1.73
2023-01-12T09:53:39.857Z,1.80
2023-01-12T09:56:34.817Z,1.47
2023-01-12T09:59:22.776Z,1.80
2023-01-12T10:01:53.133Z,1.80
2023-01-12T10:04:20.506Z,1.50
2023-01-12T10:06:47.265Z,1.67
2023-01-12T10:09:19.539Z,1.40
2023-01-12T10:12:08.787Z,1.08
2023-01-12T10:15:12.200Z,2.55
2023-01-12T10:17:54.134Z,1.48
2023-01-12T10:20:42.451Z,1.60
2023-01-12T10:23:09.122Z,1.58
2023-01-12T10:25:43.671Z,1.77
2023-01-12T10:28:24.151Z,1.42
2023-01-12T10:30:51.695Z,1.80
2023-01-12T10:33:26.901Z,1.70
2023-01-12T10:36:08.721Z,2.00
2023-01-12T10:38:39.256Z,1.95
2023-01-12T10:41:17.863Z,3.40
2023-01-12T10:43:52.661Z,3.67
2023-01-12T10:46:24.355Z,2.53
2023-01-12T10:48:56.092Z,14.52
2023-01-12T10:51:35.997Z,5.05
2023-01-12T10:54:37.270Z,2.95
2023-01-12T10:57:16.754Z,2.60
2023-01-12T10:59:54.811Z,2.40
2023-01-12T11:02:24.138Z,3.38
2023-01-12T11:04:52.932Z,2.22
2023-01-12T11:07:26.605Z,2.67
2023-01-12T11:09:54.718Z,2.80
2023-01-12T11:12:40.161Z,2.50
2023-01-12T11:15:09.816Z,3.03
2023-01-12T11:17:43.557Z,2.67
2023-01-12T11:20:22.600Z,2.53
2023-01-12T11:22:54.645Z,2.75
2023-01-12T11:25:25.773Z,2.88
2023-01-12T11:28:02.071Z,3.50
2023-01-12T11:30:52.303Z,2.35
2023-01-12T11:33:43.452Z,4.55
2023-01-12T11:36:17.563Z,3.47
2023-01-12T11:38:45.638Z,4.15
2023-01-12T11:41:35.390Z,2.22
2023-01-12T11:44:19.398Z,2.17
2023-01-12T11:47:07.827Z,2.08
2023-01-12T11:50:02.703Z,1.80
2023-01-12T11:52:29.870Z,2.88
2023-01-12T11:54:56.752Z,1.65
2023-01-12T11:57:45.640Z,1.55
2023-01-12T12:00:36.528Z,2.63
2023-01-12T12:03:38.820Z,3.13
2023-01-12T12:06:30.630Z,1.90
2023-01-12T12:11:45.409Z,1.88
2023-01-12T12:14:45.996Z,2.05
2023-01-12T12:17:22.196Z,2.60
2023-01-12T12:20:07.259Z,1.98
2023-01-12T12:22:48.668Z,2.50
2023-01-12T12:25:23.810Z,2.67
2023-01-12T12:28:03.013Z,1.90
2023-01-12T12:30:44.985Z,2.78
2023-01-12T12:33:32.787Z,2.85
2023-01-12T12:36:10.896Z,2.00
2023-01-12T12:39:26.678Z,2.85
2023-01-12T12:42:53.781Z,1.98
2023-01-12T12:45:32.869Z,2.50
2023-01-12T12:48:34.395Z,2.30
2023-01-12T12:51:13.311Z,1.65
2023-01-12T12:53:42.011Z,2.22
2023-01-12T12:56:15.071Z,1.83
2023-01-12T12:58:44.251Z,1.90
2023-01-12T13:01:20.241Z,2.25
2023-01-12T13:03:46.972Z,2.33
2023-01-12T13:06:16.620Z,1.88
2023-01-12T13:08:43.673Z,2.38
2023-01-12T13:11:10.545Z,2.78
2023-01-12T13:13:38.655Z,2.63
2023-01-12T13:16:20.689Z,1.95
2023-01-12T13:18:50.441Z,2.05
2023-01-12T13:21:31.135Z,2.20
2023-01-12T13:24:10.062Z,2.43
2023-01-12T13:26:40.035Z,2.25
2023-01-12T13:29:27.657Z,2.38
2023-01-12T13:32:20.124Z,2.22
2023-01-12T13:34:46.926Z,2.20
2023-01-12T13:37:19.236Z,2.35
2023-01-12T13:40:12.088Z,2.10
2023-01-12T13:42:57.464Z,2.53
2023-01-12T13:45:24.822Z,2.00
2023-01-12T13:47:53.576Z,2.20
2023-01-12T13:50:24.036Z,2.03
2023-01-12T13:52:59.594Z,1.60
2023-01-12T13:55:31.504Z,2.10
2023-01-12T13:58:02.243Z,2.78
2023-01-12T14:00:32.329Z,3.20
2023-01-12T14:02:59.587Z,3.10
2023-01-12T14:05:53.577Z,2.03
2023-01-12T14:08:23.218Z,2.40
2023-01-12T14:10:59.777Z,2.17
2023-01-12T14:13:57.431Z,1.67
2023-01-12T14:16:42.739Z,2.58
2023-01-12T14:19:29.448Z,2.58
2023-01-12T14:21:58.562Z,2.20
2023-01-12T14:24:25.522Z,1.98
2023-01-12T14:26:52.205Z,2.30
2023-01-12T14:29:18.966Z,2.50
2023-01-12T14:31:52.147Z,2.17
2023-01-12T14:34:34.615Z,2.30
2023-01-12T14:37:27.386Z,2.22
2023-01-12T14:39:55.364Z,2.75
2023-01-12T14:42:41.113Z,2.10
2023-01-12T14:45:46.989Z,2.03
2023-01-12T14:48:20.776Z,1.65
2023-01-12T14:51:01.024Z,1.75
2023-01-12T14:53:42.377Z,1.70
2023-01-12T14:56:15.458Z,1.98
2023-01-12T14:58:42.945Z,2.35
2023-01-12T15:01:11.028Z,1.80
2023-01-12T15:03:43.780Z,3.25
2023-01-12T15:06:15.534Z,4.15
2023-01-12T15:08:53.808Z,4.78
2023-01-12T15:11:30.381Z,3.20
2023-01-12T15:13:58.797Z,2.95
2023-01-12T15:16:44.190Z,2.40
2023-01-12T15:19:29.813Z,2.08
2023-01-12T15:22:16.680Z,2.20
2023-01-12T15:25:02.028Z,2.88
2023-01-12T15:27:29.676Z,1.98
2023-01-12T15:29:56.506Z,1.80
2023-01-12T15:32:46.285Z,2.28
2023-01-12T15:35:21.487Z,1.65
2023-01-12T15:37:48.374Z,1.63
2023-01-12T15:40:15.755Z,2.58
2023-01-12T15:42:42.462Z,1.98
2023-01-12T15:45:17.634Z,1.95
2023-01-12T15:47:44.334Z,1.80
2023-01-12T15:50:11.141Z,2.08
2023-01-12T15:52:37.873Z,1.52
2023-01-12T15:55:05.413Z,1.85
2023-01-12T15:57:32.084Z,2.03
2023-01-12T15:59:58.733Z,2.15
2023-01-12T16:02:39.077Z,2.25
2023-01-12T16:05:06.573Z,2.00
2023-01-12T16:07:33.406Z,2.05
2023-01-12T16:10:00.077Z,2.38
2023-01-12T16:12:26.941Z,1.77
2023-01-12T16:14:53.644Z,2.10
2023-01-12T16:17:20.287Z,2.67
2023-01-12T16:19:47.088Z,2.20
2023-01-12T16:22:21.353Z,2.60
2023-01-12T16:24:49.295Z,3.63
2023-01-12T16:27:17.168Z,4.82
2023-01-12T16:29:44.247Z,6.32
2023-01-12T16:32:11.545Z,4.20
2023-01-12T16:34:39.092Z,4.82
2023-01-12T16:37:06.113Z,3.13
2023-01-12T16:39:32.815Z,3.45
2023-01-12T16:42:03.599Z,3.53
2023-01-12T16:44:37.836Z,4.88
2023-01-12T16:47:05.548Z,3.22
2023-01-12T16:49:35.942Z,3.65
2023-01-12T16:52:04.666Z,4.18
2023-01-12T16:54:31.506Z,3.33
2023-01-12T16:56:58.867Z,3.20
2023-01-12T16:59:26.740Z,3.42
2023-01-12T17:01:53.707Z,2.45
2023-01-12T17:04:20.870Z,2.55
2023-01-12T17:06:48.085Z,3.45
2023-01-12T17:09:15.971Z,2.90
2023-01-12T17:11:43.816Z,3.35
2023-01-12T17:14:24.580Z,3.08
2023-01-12T17:16:56.922Z,2.43
2023-01-12T17:19:26.253Z,2.40
2023-01-12T17:21:58.200Z,2.90
2023-01-12T17:24:25.512Z,2.30
2023-01-12T17:26:53.584Z,2.60
2023-01-12T17:29:20.919Z,2.70
2023-01-12T17:31:49.387Z,2.28
2023-01-12T17:34:16.423Z,2.40
2023-01-12T17:36:43.477Z,4.22
2023-01-12T17:39:10.216Z,3.35
2023-01-12T17:41:55.516Z,3.60
2023-01-12T17:44:22.275Z,3.58
2023-01-12T17:46:49.474Z,2.80
2023-01-12T17:49:16.310Z,2.35
2023-01-12T17:51:43.041Z,2.38
2023-01-12T17:54:12.318Z,2.42
2023-01-12T17:56:39.013Z,4.05
2023-01-12T17:59:06.522Z,2.42
2023-01-12T18:01:35.992Z,3.25
2023-01-12T18:04:03.732Z,3.72
2023-01-12T18:06:30.735Z,3.15
2023-01-12T18:08:59.532Z,2.30
2023-01-12T18:11:27.173Z,2.50
2023-01-12T18:13:54.080Z,2.00
2023-01-12T18:16:21.994Z,2.63
2023-01-12T18:18:49.722Z,2.72
2023-01-12T18:21:20.936Z,3.00
2023-01-12T18:23:49.678Z,2.90
2023-01-12T18:26:23.937Z,3.22
2023-01-12T18:28:51.559Z,2.78
2023-01-12T18:31:25.080Z,3.40
2023-01-12T18:33:55.152Z,2.55
2023-01-12T18:36:24.889Z,2.25
2023-01-12T18:38:53.786Z,3.20
2023-01-12T18:41:40.030Z,2.50
2023-01-12T18:44:07.344Z,2.28
2023-01-12T18:46:54.122Z,1.88
2023-01-12T18:49:21.954Z,2.78
2023-01-12T18:52:07.747Z,2.63
2023-01-12T18:54:53.368Z,1.88
2023-01-12T18:57:23.106Z,2.10
2023-01-12T18:59:53.497Z,2.30
2023-01-12T19:02:20.787Z,2.05
2023-01-12T19:04:51.616Z,2.75
2023-01-12T19:07:58.559Z,2.80
2023-01-12T19:10:26.200Z,2.22
2023-01-12T19:13:13.064Z,2.40
2023-01-12T19:15:59.876Z,2.00
2023-01-12T19:18:27.188Z,2.20
2023-01-12T19:21:13.961Z,2.33
2023-01-12T19:23:59.090Z,2.08
2023-01-12T19:26:44.493Z,1.80
2023-01-12T19:29:11.130Z,2.13
2023-01-12T19:31:37.794Z,2.50
2023-01-12T19:34:04.473Z,2.03
2023-01-12T19:36:31.147Z,2.42
2023-01-12T19:39:00.472Z,2.50
2023-01-12T19:41:45.888Z,2.17
2023-01-12T19:44:12.587Z,2.10
2023-01-12T19:46:39.429Z,2.05
2023-01-12T19:49:07.866Z,1.92
2023-01-12T19:51:34.569Z,1.90
2023-01-12T19:54:01.213Z,2.20
2023-01-12T19:56:27.875Z,2.05
2023-01-12T19:58:54.623Z,2.50
2023-01-12T20:01:22.984Z,2.08
2023-01-12T20:03:50.628Z,2.38
2023-01-12T20:06:17.970Z,1.55
2023-01-12T20:08:44.685Z,2.20
2023-01-12T20:11:11.503Z,2.30
2023-01-12T20:13:38.232Z,2.00
2023-01-12T20:16:10.742Z,1.90
2023-01-12T20:18:37.981Z,1.88
2023-01-12T20:21:09.398Z,2.13
2023-01-12T20:26:06.715Z,2.50
2023-01-12T20:28:33.761Z,2.00
2023-01-12T20:31:00.423Z,2.13
2023-01-12T20:33:28.335Z,1.83
2023-01-12T20:35:55.186Z,2.00
2023-01-12T20:38:22.651Z,1.60
2023-01-12T20:40:49.708Z,1.60
2023-01-12T20:43:16.427Z,1.50
2023-01-12T20:45:44.219Z,1.80
2023-01-12T20:48:15.405Z,2.03
2023-01-12T20:50:46.159Z,1.85
2023-01-12T20:53:13.488Z,1.45
2023-01-12T20:55:49.439Z,1.38
2023-01-12T20:58:16.858Z,1.30
2023-01-12T21:00:44.108Z,1.73
2023-01-12T21:03:10.814Z,1.83
2023-01-12T21:05:42.289Z,1.58
2023-01-12T21:10:37.006Z,1.67
2023-01-12T21:13:03.819Z,1.85
2023-01-12T21:15:30.491Z,1.50
2023-01-12T21:17:57.502Z,1.58
2023-01-12T21:20:24.511Z,1.10
2023-01-12T21:22:51.699Z,1.40
2023-01-12T21:25:18.436Z,1.20
2023-01-12T21:27:45.102Z,1.55
2023-01-12T21:30:12.539Z,1.10
2023-01-12T21:32:39.195Z,1.73
2023-01-12T21:35:06.272Z,1.40
2023-01-12T21:37:33.009Z,1.50
2023-01-12T21:39:59.652Z,1.50
2023-01-12T21:42:46.298Z,1.33
2023-01-12T21:45:12.978Z,1.40
2023-01-12T21:47:39.621Z,1.20
2023-01-12T21:50:06.548Z,1.35
2023-01-12T21:52:33.283Z,1.33
2023-01-12T21:55:00.157Z,1.30
2023-01-12T21:57:26.870Z,1.67
2023-01-12T21:59:53.590Z,1.20
2023-01-12T22:02:20.309Z,1.20
2023-01-12T22:04:46.951Z,1.30
2023-01-12T22:07:13.603Z,1.65
2023-01-12T22:09:40.445Z,1.20
2023-01-12T22:12:07.414Z,1.30
2023-01-12T22:14:34.069Z,1.83
2023-01-12T22:17:00.771Z,1.73
2023-01-12T22:19:27.400Z,2.03
2023-01-12T22:21:54.047Z,2.00
2023-01-12T22:24:20.740Z,2.58
2023-01-12T22:26:47.423Z,2.25
2023-01-12T22:29:14.226Z,2.88
2023-01-12T22:31:40.955Z,2.83
2023-01-12T22:34:08.097Z,3.15
2023-01-12T22:36:43.072Z,2.47
2023-01-12T22:39:11.836Z,2.50
2023-01-12T22:41:39.905Z,2.90
2023-01-12T22:44:06.585Z,2.58
2023-01-12T22:46:33.236Z,2.28
2023-01-12T22:49:00.046Z,2.63
2023-01-12T22:51:28.403Z,2.30
2023-01-12T22:53:56.188Z,2.15
2023-01-12T22:56:23.402Z,2.20
2023-01-12T22:58:52.301Z,2.40
2023-01-12T23:01:20.699Z,1.90
2023-01-12T23:03:50.705Z,1.90
2023-01-12T23:06:17.784Z,2.03
2023-01-12T23:08:44.946Z,2.13
2023-01-12T23:11:18.913Z,2.28
2023-01-12T23:13:46.414Z,1.60
2023-01-12T23:16:16.054Z,2.10
2023-01-12T23:18:44.438Z,2.15
2023-01-12T23:21:15.704Z,2.10
2023-01-12T23:23:49.039Z,2.42
2023-01-12T23:26:18.686Z,2.05
2023-01-12T23:28:48.483Z,1.80
2023-01-12T23:31:18.457Z,1.88
2023-01-12T23:33:45.388Z,2.08
2023-01-12T23:36:14.426Z,2.25
2023-01-12T23:38:41.722Z,2.10
2023-01-12T23:41:18.281Z,2.70
2023-01-12T23:43:46.133Z,2.92
2023-01-12T23:46:14.047Z,3.30
2023-01-12T23:48:41.257Z,3.20
2023-01-12T23:51:08.285Z,2.92
2023-01-12T23:53:35.795Z,2.80
2023-01-12T23:56:12.383Z,2.80
2023-01-12T23:58:39.151Z,2.80
